Station: Busselton Airport  

  Atmospheric Gas Attenuation - ITU Rec 676-11   ----------------- dB/100km -----------------
Date Time Temp RH % AH g/m3 Dew Point Wind Direction Speed kph Gust kph Barometer mB Rainfall Since 9am 24GHz 47GHz 76GHz 122GHz 134GHz 241GHz
02/09 05:40 13.1 86 9.81 10.8 11 15 1020.6 0 22.2 28.4 45.5 119.6 116.5 401.6
02/09 05:30 12.9 87 9.81 10.8 11 15 1020.7 0 22.2 28.5 45.6 119.9 116.8 402.6
02/09 05:20 12.8 86 9.63 10.5 13 17 1020.7 0 21.8 28.2 44.9 118.0 114.4 394.3
02/09 05:10 12.6 85 9.4 10.1 15 19 1020.7 0 21.4 27.9 44.1 115.7 111.5 384.1
02/09 05:00 12.8 81 9.07 9.6 17 20 1020.7 0 20.6 27.3 42.6 111.8 106.7 367.2
02/09 04:50 13.1 78 8.9 9.4 17 20 1020.9 0 20.3 26.9 41.7 109.5 104.0 357.8
02/09 04:40 13.4 75 8.72 9.1 20 30 1020.9 0 19.9 26.5 40.8 107.1 101.1 348.0
02/09 04:30 13.6 71 8.36 8.4 11 15 1020.9 0 19.1 25.9 39.3 102.9 96.1 330.3
02/09 04:20 13.6 70 8.24 8.2 11 15 1020.7 0 18.8 25.6 38.8 101.6 94.5 324.7
02/09 04:10 13.6 69 8.12 8 13 19 1020.8 0 18.6 25.5 38.3 100.4 92.9 319.3
02/09 04:00 13.4 70 8.14 8 11 13 1020.9 0 18.6 25.6 38.5 100.8 93.4 321.0
02/09 03:50 13.5 69 8.07 7.9 11 15 1020.9 0 18.5 25.4 38.2 100.0 92.4 317.4
02/09 03:40 13.6 68 8 7.8 13 19 1020.9 0 18.3 25.3 37.8 99.1 91.4 313.8
02/09 03:30 13.5 67 7.84 7.5 13 15 1021 0 18.0 25.0 37.3 97.6 89.4 306.9
02/09 03:20 13.4 67 7.79 7.4 11 17 1021 0 17.9 25.0 37.1 97.2 88.9 305.1
02/09 03:10 13.5 67 7.84 7.5 13 19 1021.1 0 18.0 25.1 37.3 97.6 89.4 307.0
02/09 03:00 13.5 68 7.95 7.7 13 17 1021.2 0 18.2 25.2 37.7 98.7 90.9 312.0
02/09 02:50 13.4 68 7.91 7.6 13 17 1021.3 0 18.1 25.2 37.6 98.5 90.5 310.6
02/09 02:40 13.6 67 7.89 7.6 13 17 1021.4 0 18.1 25.1 37.4 98.0 90.0 308.9
02/09 02:30 13.6 68 8 7.8 13 17 1021.4 0 18.3 25.3 37.9 99.2 91.4 313.9
02/09 02:20 13.5 70 8.19 8.1 13 15 1021.5 0 18.7 25.6 38.7 101.3 94.0 323.1
02/09 02:10 13.6 69 8.12 8 13 17 1021.4 0 18.6 25.5 38.3 100.4 93.0 319.4
02/09 02:00 13.6 70 8.24 8.2 13 17 1021.6 0 18.8 25.7 38.8 101.7 94.6 325.0
02/09 01:50 13.8 67 7.98 7.8 17 24 1021.7 0 18.3 25.2 37.7 98.7 90.9 312.3
02/09 01:40 13.8 67 7.98 7.8 13 32 1021.8 0 18.3 25.2 37.7 98.7 91.0 312.3
02/09 01:30 13.5 68 7.95 7.7 11 17 1021.6 0 18.2 25.2 37.7 98.8 90.9 312.1
02/09 01:20 13.3 69 7.97 7.7 11 15 1021.7 0 18.3 25.3 37.9 99.3 91.4 313.8
02/09 01:10 13.3 68 7.86 7.5 11 19 1021.8 0 18.0 25.2 37.5 98.1 90.0 308.8
02/09 01:00 13.4 67 7.79 7.4 11 19 1022 0 17.9 25.0 37.2 97.3 89.0 305.3
02/09 00:50 12.9 71 8 7.8 7 11 1022 0 18.3 25.5 38.2 100.1 92.3 316.9
02/09 00:40 12.9 69 7.78 7.4 7 9 1022 0 17.9 25.2 37.3 97.8 89.4 306.8
02/09 00:30 12.9 68 7.66 7.1 7 9 1022.1 0 17.6 25.0 36.9 96.5 87.9 301.3
02/09 00:20 12.7 71 7.9 7.6 7 9 1022.1 0 18.1 25.4 37.9 99.3 91.2 313.1
02/09 00:10 12.6 71 7.86 7.5 9 9 1022.2 0 18.1 25.4 37.8 99.0 90.8 311.7
02/09 00:00 12.7 72 8.02 7.8 9 9 1022.2 0 18.4 25.6 38.4 100.6 92.8 318.7
01/09 23:50 12.7 72 8.02 7.8 7 9 1022.3 0 18.4 25.6 38.4 100.6 92.8 318.7
01/09 23:40 13 67 7.6 7 7 11 1022.5 0 17.5 24.9 36.6 95.8 87.0 298.3
01/09 23:30 13 66 7.49 6.8 9 11 1022.6 0 17.3 24.7 36.2 94.7 85.6 293.4
01/09 23:20 13.1 66 7.53 6.9 9 11 1022.6 0 17.3 24.7 36.3 95.0 86.0 294.8
01/09 23:10 13 69 7.83 7.5 9 11 1022.7 0 18.0 25.2 37.5 98.2 90.0 308.9
01/09 23:00 13.1 67 7.65 7.1 9 15 1022.7 0 17.6 24.9 36.8 96.2 87.5 300.3
01/09 22:50 13 67 7.6 7 11 15 1022.8 0 17.5 24.9 36.6 95.8 87.0 298.4
01/09 22:40 13 67 7.6 7 13 17 1023 0 17.5 24.9 36.6 95.8 87.0 298.5
01/09 22:30 13.1 69 7.87 7.5 13 17 1023.1 0 18.1 25.3 37.7 98.6 90.4 310.4
01/09 22:20 13.2 68 7.81 7.4 13 17 1023.1 0 17.9 25.2 37.4 97.8 89.5 307.3
01/09 22:10 13.1 67 7.65 7.1 11 13 1023.1 0 17.6 24.9 36.8 96.3 87.6 300.4
01/09 22:00 13.1 69 7.87 7.5 7 11 1023.2 0 18.1 25.3 37.7 98.6 90.4 310.4
01/09 21:50 13.3 66 7.63 7.1 7 9 1023.3 0 17.5 24.9 36.6 95.8 87.1 298.8
01/09 21:40 13.2 67 7.69 7.2 9 9 1023.3 0 17.7 25.0 36.9 96.6 88.0 301.9
01/09 21:30 13.1 66 7.53 6.9 7 9 1023.5 0 17.3 24.8 36.3 95.0 86.1 295.0
01/09 21:20 13 69 7.83 7.5 0 0 1023.4 0 18.0 25.3 37.6 98.3 90.1 309.0
01/09 21:10 13 69 7.83 7.5 0 0 1023.4 0 18.0 25.3 37.6 98.3 90.1 309.0
01/09 21:00 13 70 7.94 7.7 0 0 1023.6 0 18.2 25.4 38.0 99.5 91.5 314.1
01/09 20:50 12.8 68 7.62 7 6 7 1023.5 0 17.5 25.0 36.8 96.4 87.5 300.2
01/09 20:40 12.9 69 7.78 7.4 7 7 1023.5 0 17.9 25.2 37.4 97.9 89.5 307.2
01/09 20:30 13 66 7.49 6.8 9 11 1023.6 0 17.2 24.7 36.2 94.8 85.7 293.6
01/09 20:20 13.4 64 7.44 6.7 9 11 1023.5 0 17.1 24.5 35.8 93.7 84.6 289.9
01/09 20:10 13.3 65 7.51 6.9 7 11 1023.6 0 17.3 24.7 36.2 94.6 85.6 293.4
01/09 20:00 13.1 67 7.65 7.1 7 9 1023.7 0 17.6 25.0 36.8 96.3 87.6 300.5
01/09 19:50 13.1 69 7.87 7.5 7 9 1023.6 0 18.1 25.3 37.7 98.6 90.5 310.5
01/09 19:40 13.1 67 7.65 7.1 7 7 1023.6 0 17.6 25.0 36.8 96.3 87.6 300.5
01/09 19:30 13.2 67 7.69 7.2 7 11 1023.7 0 17.7 25.0 36.9 96.6 88.0 302.0
01/09 19:20 13.3 68 7.86 7.5 9 13 1023.6 0 18.0 25.2 37.5 98.3 90.1 309.3
01/09 19:10 13.6 64 7.53 6.9 9 11 1023.6 0 17.3 24.6 36.1 94.5 85.5 293.2
01/09 19:00 13.7 62 7.34 6.6 11 15 1023.7 0 16.9 24.3 35.3 92.4 83.0 284.4
01/09 18:50 13.7 64 7.58 7 11 15 1023.6 0 17.4 24.7 36.3 94.9 86.0 295.1
01/09 18:40 13.7 67 7.93 7.7 11 17 1023.6 0 18.2 25.2 37.6 98.5 90.6 310.9
01/09 18:30 13.8 66 7.86 7.6 9 11 1023.6 0 18.0 25.1 37.3 97.7 89.5 307.3
01/09 18:20 13.7 68 8.05 7.9 11 13 1023.5 0 18.4 25.4 38.1 99.8 92.1 316.4
01/09 18:10 13.8 66 7.86 7.6 11 13 1023.5 0 18.0 25.1 37.3 97.7 89.5 307.3
01/09 18:00 13.9 64 7.67 7.2 13 15 1023.5 0 17.6 24.8 36.5 95.5 87.0 298.4
01/09 17:50 14.1 64 7.77 7.4 11 19 1023.4 0 17.8 24.9 36.8 96.3 88.0 302.1
01/09 17:40 14.2 64 7.82 7.5 11 17 1023.4 0 17.9 24.9 37.0 96.7 88.6 303.9
01/09 17:30 14.5 61 7.59 7.1 13 19 1023.5 0 17.4 24.5 35.9 94.0 85.3 292.5
01/09 17:20 14.7 59 7.43 6.8 15 19 1023.4 0 17.0 24.2 35.2 92.1 83.0 284.7
01/09 17:10 15.2 56 7.27 6.5 13 19 1023.3 0 16.7 23.8 34.4 89.9 80.5 275.9
01/09 17:00 15.1 59 7.61 7.2 13 17 1023.4 0 17.4 24.3 35.7 93.5 84.9 291.2
01/09 16:50 15.4 56 7.36 6.7 13 17 1023.3 0 16.9 23.9 34.7 90.6 81.4 279.2
01/09 16:40 15.1 56 7.22 6.4 13 19 1023.4 0 16.6 23.7 34.3 89.5 80.0 274.1
01/09 16:30 15.3 57 7.44 6.8 13 17 1023.5 0 17.0 24.0 35.0 91.5 82.6 283.0
01/09 16:20 15.3 56 7.31 6.6 17 20 1023.4 0 16.8 23.8 34.5 90.2 80.9 277.3
01/09 16:10 15.4 59 7.75 7.4 13 17 1023.4 0 17.7 24.5 36.1 94.6 86.3 296.3
01/09 16:00 15.3 58 7.57 7.1 15 19 1023.5 0 17.3 24.2 35.5 92.9 84.2 288.7
01/09 15:50 15.4 59 7.75 7.4 15 20 1023.4 0 17.7 24.5 36.1 94.6 86.3 296.3
01/09 15:40 15.3 58 7.57 7.1 17 20 1023.3 0 17.3 24.2 35.5 92.8 84.2 288.7
01/09 15:30 15.4 59 7.75 7.4 17 20 1023.4 0 17.7 24.5 36.1 94.6 86.3 296.3
01/09 15:20 15.6 60 7.98 7.9 19 26 1023.3 0 18.2 24.8 36.9 96.7 89.0 305.7
01/09 15:10 15.7 56 7.49 7 20 24 1023.3 0 17.1 24.0 35.0 91.6 82.7 283.8
01/09 15:00 16.2 53 7.31 6.6 17 24 1023.4 0 16.7 23.6 34.1 89.2 80.0 274.3
01/09 14:50 16.2 51 7.03 6.1 19 28 1023.3 0 16.1 23.2 33.1 86.4 76.6 262.2
01/09 14:40 17 53 7.67 7.4 15 24 1023.3 0 17.5 23.9 35.1 91.9 83.6 286.9
01/09 14:30 16.1 50 6.85 5.7 17 22 1023.5 0 15.8 22.9 32.5 84.8 74.5 255.0
01/09 14:20 17.2 48 7.03 6.1 17 26 1023.4 0 16.1 22.9 32.7 85.4 75.6 259.0
01/09 14:10 17 49 7.09 6.2 15 24 1023.4 0 16.2 23.1 33.0 86.2 76.5 262.2
01/09 14:00 16.3 50 6.94 5.9 19 24 1023.7 0 15.9 23.0 32.7 85.5 75.4 258.2
01/09 13:50 16 54 7.36 6.7 19 26 1023.7 0 16.8 23.7 34.4 90.0 80.8 277.2
01/09 13:40 16.1 57 7.81 7.6 19 28 1023.8 0 17.8 24.4 36.1 94.4 86.3 296.4
01/09 13:30 16.1 56 7.68 7.3 13 19 1024 0 17.5 24.2 35.6 93.1 84.7 290.8
01/09 13:20 16.1 55 7.54 7.1 13 19 1023.9 0 17.2 24.0 35.1 91.7 83.0 284.7
01/09 13:10 15.3 53 6.92 5.8 17 22 1024.1 0 15.9 23.3 33.1 86.4 76.2 260.6

Last Refresh: 02-Sep-2026 07:20:13

Bureau of Meteorology